createdAt,value
2023-03-10T00:01:01.931Z,7.61
2023-03-10T00:03:33.408Z,7.60
2023-03-10T00:06:05.462Z,7.56
2023-03-10T00:08:37.140Z,7.55
2023-03-10T00:11:09.164Z,7.50
2023-03-10T00:13:41.241Z,7.48
2023-03-10T00:16:28.898Z,7.45
2023-03-10T00:19:01.316Z,7.44
2023-03-10T00:21:33.202Z,7.43
2023-03-10T00:24:04.844Z,7.41
2023-03-10T00:26:38.602Z,7.38
2023-03-10T00:29:13.567Z,7.32
2023-03-10T00:31:45.290Z,7.28
2023-03-10T00:34:16.823Z,7.28
2023-03-10T00:36:48.415Z,7.27
2023-03-10T00:39:19.982Z,7.26
2023-03-10T00:41:51.514Z,7.24
2023-03-10T00:44:23.147Z,7.20
2023-03-10T00:46:55.156Z,7.15
2023-03-10T00:49:26.702Z,7.12
2023-03-10T00:51:58.244Z,7.11
2023-03-10T00:54:29.764Z,7.10
2023-03-10T00:57:01.632Z,7.10
2023-03-10T00:59:47.792Z,7.04
2023-03-10T01:02:21.600Z,7.04
2023-03-10T01:04:53.119Z,7.03
2023-03-10T01:07:24.691Z,7.03
2023-03-10T01:09:56.359Z,7.03
2023-03-10T01:12:27.944Z,7.03
2023-03-10T01:15:01.212Z,7.05
2023-03-10T01:17:33.092Z,7.06
2023-03-10T01:20:09.875Z,7.04
2023-03-10T01:22:41.618Z,7.03
2023-03-10T01:25:17.156Z,7.00
2023-03-10T01:27:48.674Z,7.04
2023-03-10T01:30:20.447Z,7.03
2023-03-10T01:32:52.086Z,6.95
2023-03-10T01:35:23.647Z,7.04
2023-03-10T01:37:55.209Z,7.02
2023-03-10T01:40:26.898Z,7.03
2023-03-10T01:43:20.504Z,7.01
2023-03-10T01:45:51.975Z,7.01
2023-03-10T01:48:23.951Z,7.01
2023-03-10T01:50:57.242Z,6.98
2023-03-10T01:53:29.520Z,6.99
2023-03-10T01:56:05.305Z,7.00
2023-03-10T01:58:44.377Z,6.96
2023-03-10T02:01:18.218Z,6.93
2023-03-10T02:04:09.893Z,6.91
2023-03-10T02:06:43.133Z,6.88
2023-03-10T02:09:16.556Z,6.87
2023-03-10T02:11:49.413Z,6.85
2023-03-10T02:14:21.327Z,6.84
2023-03-10T02:16:53.143Z,6.80
2023-03-10T02:19:35.981Z,6.80
2023-03-10T02:22:10.313Z,6.82
2023-03-10T02:24:57.737Z,6.78
2023-03-10T02:27:36.945Z,6.75
2023-03-10T02:30:34.492Z,6.70
2023-03-10T02:33:20.325Z,6.72
2023-03-10T02:35:52.241Z,6.72
2023-03-10T02:38:23.826Z,6.68
2023-03-10T02:40:57.573Z,6.64
2023-03-10T02:43:32.879Z,6.66
2023-03-10T02:46:06.904Z,6.65
2023-03-10T02:48:39.164Z,6.60
2023-03-10T02:51:18.702Z,6.65
2023-03-10T02:53:50.592Z,6.62
2023-03-10T02:56:22.216Z,6.65
2023-03-10T02:58:54.097Z,6.66
2023-03-10T03:01:30.647Z,6.65
2023-03-10T03:04:02.537Z,6.68
2023-03-10T03:06:34.617Z,6.67
2023-03-10T03:09:06.144Z,6.71
2023-03-10T03:11:37.900Z,6.71
2023-03-10T03:14:09.555Z,6.74
2023-03-10T03:16:41.322Z,6.77
2023-03-10T03:19:12.903Z,6.74
2023-03-10T03:21:49.868Z,6.80
2023-03-10T03:24:21.990Z,6.81
2023-03-10T03:26:53.657Z,6.83
2023-03-10T03:29:25.196Z,6.86
2023-03-10T03:31:56.843Z,6.87
2023-03-10T03:34:28.508Z,6.93
2023-03-10T03:37:00.145Z,6.92
2023-03-10T03:39:31.772Z,6.96
2023-03-10T03:42:03.726Z,6.91
2023-03-10T03:44:35.301Z,6.93
2023-03-10T03:47:09.050Z,6.89
2023-03-10T03:49:40.594Z,6.64
2023-03-10T03:52:12.108Z,6.45
2023-03-10T03:54:43.629Z,6.40
2023-03-10T03:57:15.128Z,6.47
2023-03-10T03:59:46.558Z,6.36
2023-03-10T04:02:18.521Z,6.43
2023-03-10T04:04:50.268Z,6.45
2023-03-10T04:07:21.821Z,6.55
2023-03-10T04:09:53.423Z,6.65
2023-03-10T04:12:29.791Z,6.72
2023-03-10T04:15:01.542Z,6.78
2023-03-10T04:17:33.509Z,6.80
2023-03-10T04:20:08.699Z,6.87
2023-03-10T04:22:41.200Z,6.90
2023-03-10T04:25:13.143Z,6.91
2023-03-10T04:27:44.690Z,6.96
2023-03-10T04:30:16.213Z,7.03
2023-03-10T04:32:49.234Z,7.06
2023-03-10T04:35:20.975Z,7.15
2023-03-10T04:37:53.887Z,7.16
2023-03-10T04:40:25.408Z,7.23
2023-03-10T04:42:57.000Z,7.30
2023-03-10T04:45:28.525Z,7.38
2023-03-10T04:48:00.207Z,7.45
2023-03-10T04:50:31.817Z,7.52
2023-03-10T04:53:03.394Z,7.60
2023-03-10T04:55:35.053Z,7.68
2023-03-10T04:58:06.669Z,7.74
2023-03-10T05:00:53.087Z,7.77
2023-03-10T05:03:31.972Z,7.82
2023-03-10T05:06:04.278Z,7.87
2023-03-10T05:08:35.856Z,7.93
2023-03-10T05:11:08.023Z,7.95
2023-03-10T05:13:39.556Z,8.01
2023-03-10T05:16:16.573Z,8.05
2023-03-10T05:18:48.756Z,8.11
2023-03-10T05:21:21.904Z,8.11
2023-03-10T05:23:53.548Z,8.17
2023-03-10T05:26:25.482Z,8.18
2023-03-10T05:28:57.705Z,8.22
2023-03-10T05:31:29.453Z,8.26
2023-03-10T05:34:01.082Z,8.27
2023-03-10T05:36:32.642Z,8.28
2023-03-10T05:39:05.871Z,8.30
2023-03-10T05:41:38.828Z,8.29
2023-03-10T05:44:10.545Z,8.27
2023-03-10T05:46:42.214Z,8.30
2023-03-10T05:49:13.811Z,8.31
2023-03-10T05:51:45.267Z,8.28
2023-03-10T05:54:16.808Z,8.25
2023-03-10T05:56:48.443Z,8.25
2023-03-10T05:59:20.080Z,8.29
2023-03-10T06:01:51.664Z,8.28
2023-03-10T06:04:23.230Z,8.28
2023-03-10T06:06:56.091Z,8.31
2023-03-10T06:09:32.514Z,8.33
2023-03-10T06:12:04.444Z,8.33
2023-03-10T06:14:38.143Z,8.33
2023-03-10T06:17:09.858Z,8.36
2023-03-10T06:19:41.447Z,8.35
2023-03-10T06:22:13.202Z,8.36
2023-03-10T06:24:45.537Z,8.41
2023-03-10T06:27:16.898Z,8.40
2023-03-10T06:29:49.712Z,8.41
2023-03-10T06:32:21.678Z,8.41
2023-03-10T06:34:53.511Z,8.45
2023-03-10T06:37:25.076Z,8.48
2023-03-10T06:39:56.843Z,8.54
2023-03-10T06:42:28.434Z,8.56
2023-03-10T06:45:01.843Z,8.60
2023-03-10T06:47:33.381Z,8.65
2023-03-10T06:50:06.364Z,8.72
2023-03-10T06:52:37.907Z,8.76
2023-03-10T06:55:10.820Z,8.76
2023-03-10T06:57:42.745Z,8.77
2023-03-10T07:00:15.837Z,8.85
2023-03-10T07:02:47.353Z,8.92
2023-03-10T07:05:19.485Z,9.00
2023-03-10T07:07:51.153Z,9.05
2023-03-10T07:10:23.057Z,9.12
2023-03-10T07:12:58.820Z,9.19
2023-03-10T07:15:30.449Z,9.25
2023-03-10T07:18:02.235Z,9.32
2023-03-10T07:20:34.150Z,9.40
2023-03-10T07:23:06.072Z,9.45
2023-03-10T07:25:41.144Z,9.50
2023-03-10T07:28:12.807Z,9.55
2023-03-10T07:30:44.614Z,9.58
2023-03-10T07:33:16.931Z,9.61
2023-03-10T07:35:49.014Z,9.63
2023-03-10T07:38:20.592Z,9.68
2023-03-10T07:40:52.141Z,9.68
2023-03-10T07:43:23.654Z,9.79
2023-03-10T07:45:56.181Z,9.83
2023-03-10T07:48:27.926Z,9.86
2023-03-10T07:51:00.230Z,9.85
2023-03-10T07:53:31.907Z,9.95
2023-03-10T07:56:11.986Z,10.07
2023-03-10T07:58:43.658Z,10.11
2023-03-10T08:01:18.114Z,10.17
2023-03-10T08:03:50.277Z,10.25
2023-03-10T08:06:24.566Z,10.32
2023-03-10T08:08:56.950Z,10.40
2023-03-10T08:11:28.446Z,10.42
2023-03-10T08:14:00.214Z,10.52
2023-03-10T08:16:31.880Z,10.61
2023-03-10T08:19:03.774Z,10.63
2023-03-10T08:21:35.315Z,10.70
2023-03-10T08:24:07.217Z,10.80
2023-03-10T08:26:38.838Z,10.83
2023-03-10T08:29:10.364Z,10.84
2023-03-10T08:31:42.102Z,10.82
2023-03-10T08:34:14.604Z,10.88
2023-03-10T08:36:46.180Z,10.94
2023-03-10T08:39:17.666Z,10.94
2023-03-10T08:41:49.836Z,11.02
2023-03-10T08:44:22.200Z,11.03
2023-03-10T08:46:54.964Z,11.13
2023-03-10T08:49:26.509Z,11.20
2023-03-10T08:51:59.203Z,11.04
2023-03-10T08:54:32.571Z,11.26
2023-03-10T08:57:04.351Z,11.32
2023-03-10T08:59:36.197Z,11.42
2023-03-10T09:02:08.125Z,11.41
2023-03-10T09:04:39.797Z,11.33
2023-03-10T09:07:13.099Z,11.33
2023-03-10T09:09:44.594Z,11.44
2023-03-10T09:12:16.156Z,11.59
2023-03-10T09:14:50.771Z,11.78
2023-03-10T09:17:22.419Z,11.98
2023-03-10T09:19:54.000Z,12.27
2023-03-10T09:22:25.533Z,12.48
2023-03-10T09:24:59.474Z,12.58
2023-03-10T09:27:32.305Z,12.95
2023-03-10T09:30:04.101Z,13.11
2023-03-10T09:32:36.903Z,13.10
2023-03-10T09:35:08.690Z,13.09
2023-03-10T09:37:40.304Z,12.80
2023-03-10T09:40:18.080Z,12.73
2023-03-10T09:42:59.873Z,12.62
2023-03-10T09:45:43.671Z,12.49
2023-03-10T09:48:27.318Z,12.43
2023-03-10T09:51:05.787Z,12.41
2023-03-10T09:54:02.209Z,12.44
2023-03-10T09:56:36.241Z,12.38
2023-03-10T09:59:32.333Z,12.00
2023-03-10T10:02:17.931Z,11.39
2023-03-10T10:04:55.854Z,10.93
2023-03-10T10:07:34.273Z,10.48
2023-03-10T10:10:12.809Z,10.28
2023-03-10T10:12:46.207Z,10.03
2023-03-10T10:15:22.416Z,9.93
2023-03-10T10:18:25.579Z,9.96
2023-03-10T10:21:40.275Z,9.87
2023-03-10T10:24:18.223Z,9.82
2023-03-10T10:26:50.319Z,9.58
2023-03-10T10:29:42.311Z,9.45
2023-03-10T10:32:16.111Z,9.29
2023-03-10T10:34:49.246Z,9.22
2023-03-10T10:37:42.771Z,9.18
2023-03-10T10:40:26.179Z,8.90
2023-03-10T10:43:00.814Z,8.79
2023-03-10T10:45:36.350Z,8.78
2023-03-10T10:48:32.068Z,8.80
2023-03-10T10:51:05.171Z,8.82
2023-03-10T10:53:40.130Z,8.81
2023-03-10T10:56:18.563Z,8.99
2023-03-10T10:59:06.138Z,9.06
2023-03-10T11:01:56.131Z,9.06
2023-03-10T11:04:46.099Z,9.18
2023-03-10T11:07:27.017Z,9.23
2023-03-10T11:09:58.803Z,9.27
2023-03-10T11:12:36.686Z,9.25
2023-03-10T11:15:15.652Z,9.34
2023-03-10T11:17:56.165Z,9.41
2023-03-10T11:20:37.964Z,9.43
2023-03-10T11:23:18.545Z,9.44
2023-03-10T11:25:56.148Z,9.71
2023-03-10T11:28:46.555Z,10.10
2023-03-10T11:31:40.215Z,10.36
2023-03-10T11:34:35.360Z,10.68
2023-03-10T11:37:18.115Z,10.82
2023-03-10T11:40:19.670Z,10.97
2023-03-10T11:43:13.767Z,11.35
2023-03-10T11:45:52.916Z,11.85
2023-03-10T11:49:03.085Z,12.25
2023-03-10T11:51:46.435Z,12.41
2023-03-10T11:54:32.817Z,12.63
2023-03-10T11:57:18.336Z,12.87
2023-03-10T11:59:59.712Z,12.69
2023-03-10T12:03:07.160Z,13.01
2023-03-10T12:05:57.448Z,12.71
2023-03-10T12:08:33.445Z,12.55
2023-03-10T12:11:13.604Z,12.46
2023-03-10T12:13:49.002Z,12.58
2023-03-10T12:16:24.418Z,12.62
2023-03-10T12:18:56.646Z,12.65
2023-03-10T12:21:30.093Z,12.34
2023-03-10T12:24:05.535Z,12.31
2023-03-10T12:26:40.849Z,12.27
2023-03-10T12:29:21.183Z,12.74
2023-03-10T12:31:54.692Z,13.07
2023-03-10T12:34:29.191Z,13.13
2023-03-10T12:37:11.150Z,13.09
2023-03-10T12:39:44.243Z,13.02
2023-03-10T12:42:32.805Z,13.09
2023-03-10T12:45:28.406Z,12.73
2023-03-10T12:48:17.810Z,12.65
2023-03-10T12:51:01.701Z,12.84
2023-03-10T12:53:40.153Z,12.76
2023-03-10T12:56:11.581Z,12.85
2023-03-10T12:59:02.885Z,13.23
2023-03-10T13:01:49.524Z,13.20
2023-03-10T13:04:27.617Z,13.40
2023-03-10T13:07:04.129Z,13.26
2023-03-10T13:09:42.365Z,13.09
2023-03-10T13:12:21.400Z,12.73
2023-03-10T13:14:57.349Z,12.93
2023-03-10T13:17:31.209Z,13.35
2023-03-10T13:20:13.402Z,14.27
2023-03-10T13:22:58.346Z,15.54
2023-03-10T13:25:32.541Z,14.88
2023-03-10T13:28:11.683Z,14.35
2023-03-10T13:30:43.267Z,13.68
2023-03-10T13:33:32.255Z,12.97
2023-03-10T13:36:35.687Z,12.99
2023-03-10T13:39:27.882Z,13.16
2023-03-10T13:42:01.884Z,13.14
2023-03-10T13:44:44.424Z,12.95
2023-03-10T13:47:20.624Z,13.28
2023-03-10T13:50:00.659Z,14.44
2023-03-10T13:52:32.329Z,16.02
2023-03-10T13:55:16.675Z,15.86
2023-03-10T13:57:48.918Z,14.57
2023-03-10T14:00:24.817Z,13.98
2023-03-10T14:02:56.727Z,12.68
2023-03-10T14:05:57.706Z,12.06
2023-03-10T14:08:30.989Z,11.30
2023-03-10T14:11:31.007Z,11.16
2023-03-10T14:14:08.215Z,11.12
2023-03-10T14:16:59.992Z,11.12
2023-03-10T14:19:43.720Z,11.01
2023-03-10T14:22:22.451Z,11.18
2023-03-10T14:24:57.758Z,11.34
2023-03-10T14:27:29.409Z,11.24
2023-03-10T14:30:04.671Z,11.03
2023-03-10T14:32:36.198Z,10.95
2023-03-10T14:35:12.874Z,10.84
2023-03-10T14:37:44.369Z,10.83
2023-03-10T14:40:17.284Z,11.31
2023-03-10T14:42:51.807Z,11.18
2023-03-10T14:45:27.855Z,11.07
2023-03-10T14:48:04.184Z,10.83
2023-03-10T14:50:36.486Z,10.60
2023-03-10T14:53:12.271Z,10.41
2023-03-10T14:55:47.776Z,10.14
2023-03-10T14:58:25.307Z,10.07
2023-03-10T15:00:57.013Z,9.90
2023-03-10T15:03:28.678Z,9.65
2023-03-10T15:06:01.331Z,9.22
2023-03-10T15:08:32.863Z,9.18
2023-03-10T15:11:04.526Z,9.13
2023-03-10T15:13:38.042Z,9.08
2023-03-10T15:16:14.248Z,9.01
2023-03-10T15:18:47.206Z,8.88
2023-03-10T15:21:19.238Z,8.79
2023-03-10T15:23:50.816Z,8.75
2023-03-10T15:26:22.355Z,8.72
2023-03-10T15:28:54.075Z,8.64
2023-03-10T15:31:25.681Z,8.66
2023-03-10T15:33:57.299Z,8.49
2023-03-10T15:36:28.866Z,8.47
2023-03-10T15:39:00.362Z,8.39
2023-03-10T15:41:36.796Z,8.36
2023-03-10T15:44:08.650Z,8.26
2023-03-10T15:46:42.295Z,8.10
2023-03-10T15:49:14.014Z,7.98
2023-03-10T15:51:47.014Z,7.88
2023-03-10T15:54:18.763Z,7.82
2023-03-10T15:56:50.624Z,7.79
2023-03-10T15:59:22.269Z,7.86
2023-03-10T16:01:54.284Z,7.74
2023-03-10T16:04:27.145Z,7.71
2023-03-10T16:07:03.656Z,7.73
2023-03-10T16:09:35.176Z,7.81
2023-03-10T16:12:07.260Z,7.85
2023-03-10T16:14:38.777Z,7.88
2023-03-10T16:17:11.736Z,8.00
2023-03-10T16:19:43.409Z,7.99
2023-03-10T16:22:15.828Z,8.07
2023-03-10T16:24:47.370Z,8.02
2023-03-10T16:27:18.976Z,8.02
2023-03-10T16:29:50.595Z,8.05
2023-03-10T16:32:22.681Z,8.03
2023-03-10T16:34:54.387Z,8.07
2023-03-10T16:37:27.640Z,8.06
2023-03-10T16:39:59.203Z,8.01
2023-03-10T16:42:36.075Z,8.01
2023-03-10T16:45:08.155Z,8.01
2023-03-10T16:47:41.139Z,8.00
2023-03-10T16:50:14.341Z,7.97
2023-03-10T16:52:46.040Z,7.94
2023-03-10T16:55:19.972Z,7.94
2023-03-10T16:57:51.520Z,7.97
2023-03-10T17:00:23.222Z,7.97
2023-03-10T17:02:56.398Z,7.94
2023-03-10T17:05:28.186Z,7.92
2023-03-10T17:08:02.955Z,7.79
2023-03-10T17:10:34.931Z,7.69
2023-03-10T17:13:06.520Z,7.61
2023-03-10T17:15:38.052Z,7.61
2023-03-10T17:18:09.826Z,7.52
2023-03-10T17:20:41.426Z,7.57
2023-03-10T17:23:12.970Z,7.46
2023-03-10T17:25:45.309Z,7.47
2023-03-10T17:28:16.991Z,7.49
2023-03-10T17:30:48.837Z,7.49
2023-03-10T17:33:20.341Z,7.42
2023-03-10T17:35:51.822Z,7.43
2023-03-10T17:38:23.445Z,7.47
2023-03-10T17:40:54.942Z,7.46
2023-03-10T17:43:34.512Z,7.38
2023-03-10T17:46:09.344Z,7.32
2023-03-10T17:48:41.841Z,7.27
2023-03-10T17:51:16.693Z,7.24
2023-03-10T17:53:48.598Z,7.22
2023-03-10T17:56:21.969Z,7.14
2023-03-10T17:58:54.619Z,7.03
2023-03-10T18:01:28.684Z,6.96
2023-03-10T18:04:00.800Z,7.00
2023-03-10T18:06:35.520Z,6.99
2023-03-10T18:09:12.035Z,6.92
2023-03-10T18:11:43.904Z,6.90
2023-03-10T18:14:15.929Z,6.87
2023-03-10T18:16:47.488Z,6.82
2023-03-10T18:19:21.556Z,6.76
2023-03-10T18:21:53.381Z,6.80
2023-03-10T18:24:25.773Z,6.75
2023-03-10T18:26:57.175Z,6.69
2023-03-10T18:29:29.052Z,6.71
2023-03-10T18:32:01.024Z,6.74
2023-03-10T18:34:33.742Z,6.78
2023-03-10T18:37:06.556Z,6.80
2023-03-10T18:39:40.973Z,6.90
2023-03-10T18:42:12.777Z,6.93
2023-03-10T18:44:47.094Z,6.92
2023-03-10T18:47:19.050Z,6.99
2023-03-10T18:49:51.018Z,7.05
2023-03-10T18:52:23.014Z,6.97
2023-03-10T18:54:56.409Z,6.34
2023-03-10T18:57:36.714Z,6.16
2023-03-10T19:00:09.239Z,5.99
2023-03-10T19:02:45.432Z,5.94
2023-03-10T19:05:18.361Z,5.92
2023-03-10T19:07:50.078Z,5.99
2023-03-10T19:10:21.968Z,6.01
2023-03-10T19:12:54.922Z,6.02
2023-03-10T19:15:29.534Z,6.10
2023-03-10T19:18:01.027Z,6.08
2023-03-10T19:20:33.550Z,6.13
2023-03-10T19:23:05.116Z,6.19
2023-03-10T19:25:40.440Z,6.21
2023-03-10T19:28:12.400Z,6.20
2023-03-10T19:30:44.048Z,6.18
2023-03-10T19:33:18.750Z,6.18
2023-03-10T19:36:04.259Z,6.14
2023-03-10T19:38:37.056Z,6.15
2023-03-10T19:41:15.934Z,6.06
2023-03-10T19:43:53.868Z,6.04
2023-03-10T19:46:25.788Z,6.08
2023-03-10T19:48:57.702Z,6.15
2023-03-10T19:51:33.375Z,6.18
2023-03-10T19:54:05.778Z,6.23
2023-03-10T19:56:37.282Z,6.23
2023-03-10T19:59:10.291Z,6.24
2023-03-10T20:01:43.996Z,6.23
2023-03-10T20:04:17.164Z,6.18
2023-03-10T20:06:48.717Z,6.22
2023-03-10T20:09:20.882Z,6.22
2023-03-10T20:11:53.450Z,6.17
2023-03-10T20:14:26.987Z,6.21
2023-03-10T20:16:59.642Z,6.22
2023-03-10T20:19:31.267Z,6.20
2023-03-10T20:22:06.110Z,6.19
2023-03-10T20:24:37.740Z,6.20
2023-03-10T20:27:09.312Z,6.18
2023-03-10T20:29:42.461Z,6.23
2023-03-10T20:32:14.218Z,6.22
2023-03-10T20:34:45.799Z,6.22
2023-03-10T20:37:17.662Z,6.22
2023-03-10T20:39:49.174Z,6.20
2023-03-10T20:42:20.965Z,6.19
2023-03-10T20:44:52.503Z,6.19
2023-03-10T20:47:29.479Z,6.21
2023-03-10T20:50:03.689Z,6.11
2023-03-10T20:52:38.222Z,6.15
2023-03-10T20:55:31.247Z,6.12
2023-03-10T20:58:04.357Z,6.16
2023-03-10T21:00:35.856Z,6.18
2023-03-10T21:03:07.756Z,6.16
2023-03-10T21:05:39.344Z,6.01
2023-03-10T21:08:11.178Z,5.81
2023-03-10T21:10:44.669Z,5.59
2023-03-10T21:13:16.497Z,5.57
2023-03-10T21:15:48.141Z,5.53
2023-03-10T21:18:19.854Z,5.38
2023-03-10T21:20:51.559Z,5.38
2023-03-10T21:23:23.104Z,5.32
2023-03-10T21:25:54.718Z,5.08
2023-03-10T21:28:26.253Z,4.66
2023-03-10T21:30:57.967Z,4.23
2023-03-10T21:33:29.555Z,3.90
2023-03-10T21:36:01.669Z,3.88
2023-03-10T21:38:33.426Z,3.85
2023-03-10T21:41:05.640Z,3.95
2023-03-10T21:43:37.232Z,3.92
2023-03-10T21:46:09.270Z,3.95
2023-03-10T21:48:41.331Z,3.95
2023-03-10T21:51:14.843Z,3.97
2023-03-10T21:53:46.813Z,3.97
2023-03-10T21:56:19.714Z,3.98
2023-03-10T21:58:51.341Z,4.00
2023-03-10T22:01:23.903Z,3.93
2023-03-10T22:03:55.565Z,4.05
2023-03-10T22:06:28.402Z,4.10
2023-03-10T22:08:59.924Z,4.04
2023-03-10T22:11:31.613Z,4.03
2023-03-10T22:14:03.336Z,4.00
2023-03-10T22:16:34.911Z,3.97
2023-03-10T22:19:06.439Z,4.00
2023-03-10T22:21:37.910Z,3.98
2023-03-10T22:24:09.389Z,4.03
2023-03-10T22:26:40.996Z,4.04
2023-03-10T22:29:14.341Z,4.04
2023-03-10T22:31:45.818Z,3.93
2023-03-10T22:34:17.317Z,3.88
2023-03-10T22:36:48.868Z,3.57
2023-03-10T22:39:21.486Z,3.21
2023-03-10T22:41:53.052Z,3.01
2023-03-10T22:44:24.620Z,2.70
2023-03-10T22:46:56.429Z,2.54
2023-03-10T22:49:28.157Z,2.55
2023-03-10T22:51:59.813Z,2.64
2023-03-10T22:54:31.373Z,2.76
2023-03-10T22:57:03.076Z,2.79
2023-03-10T22:59:34.600Z,2.84
2023-03-10T23:02:06.119Z,2.92
2023-03-10T23:04:37.814Z,2.93
2023-03-10T23:07:09.306Z,2.96
2023-03-10T23:09:41.024Z,2.91
2023-03-10T23:12:12.529Z,2.89
2023-03-10T23:14:44.284Z,2.91
2023-03-10T23:17:15.865Z,2.89
2023-03-10T23:19:51.418Z,2.84
2023-03-10T23:22:23.521Z,2.74
2023-03-10T23:24:55.300Z,2.67
2023-03-10T23:27:26.922Z,2.69
2023-03-10T23:29:59.236Z,2.69
2023-03-10T23:32:30.697Z,2.68
2023-03-10T23:35:06.286Z,2.62
2023-03-10T23:37:37.893Z,2.62
2023-03-10T23:40:13.830Z,2.58
2023-03-10T23:42:46.180Z,2.50
2023-03-10T23:45:18.881Z,2.41
2023-03-10T23:47:51.618Z,2.32
2023-03-10T23:50:26.622Z,2.27
2023-03-10T23:52:58.416Z,2.16
2023-03-10T23:55:33.171Z,2.14
2023-03-10T23:58:05.932Z,2.09
